KMWA/MWA METAR and TAF weather

Enter ICAO airport designator
Station Type Date Time Source
KMWA METAR 2019/05/19 19:45 UTC NOAA

KMWA 191945Z 21010G18KT 10SM BKN021 BKN028 BKN034 24/19 A2979


Station Type Date Time Source
KMWA Decoded METAR 2019/05/19 19:45 UTC NOAA

Marion, Williamson County Regional Airport, IL, United States (KMWA) 37-45-01N 089-00-04W
May 19, 2019 - 03:45 PM EDT / 2019.05.19 1945 UTC
Wind: from the SSW (210 degrees) at 12 MPH (10 KT) gusting to 21 MPH (18 KT):0
Visibility: 10 mile(s):0
Sky conditions: mostly cloudy
Temperature: 75 F (24 C)
Dew Point: 66 F (19 C)
Relative Humidity: 73%
Pressure (altimeter): 29.79 in. Hg (1008 hPa)
ob: KMWA 191945Z 21010G18KT 10SM BKN021 BKN028 BKN034 24/19 A2979
cycle: 20

Station Type Date Time Source
KMWA TAF UTC NOAA

Error!

Example: see airport list